sensor_id;sensor_type;location;lat;lon;timestamp;pressure;altitude;pressure_sealevel;temperature;humidity
46768;BME280;69007;48.978;18.066;2023-07-13T00:00:37;97253.16;;;23.37;100.00
46768;BME280;69007;48.978;18.066;2023-07-13T00:03:03;97259.34;;;23.30;100.00
46768;BME280;69007;48.978;18.066;2023-07-13T00:05:29;97281.00;;;23.41;100.00
46768;BME280;69007;48.978;18.066;2023-07-13T00:07:54;97261.84;;;23.19;100.00
46768;BME280;69007;48.978;18.066;2023-07-13T00:10:20;97268.72;;;23.10;100.00
46768;BME280;69007;48.978;18.066;2023-07-13T00:12:46;97283.06;;;23.12;100.00
46768;BME280;69007;48.978;18.066;2023-07-13T00:15:18;97294.53;;;23.10;100.00
46768;BME280;69007;48.978;18.066;2023-07-13T00:17:51;97296.53;;;22.97;100.00
46768;BME280;69007;48.978;18.066;2023-07-13T00:20:17;97297.31;;;22.82;100.00
46768;BME280;69007;48.978;18.066;2023-07-13T00:22:42;97324.44;;;22.60;100.00
46768;BME280;69007;48.978;18.066;2023-07-13T00:25:10;97329.56;;;22.46;100.00
46768;BME280;69007;48.978;18.066;2023-07-13T00:27:36;97332.13;;;22.39;100.00
46768;BME280;69007;48.978;18.066;2023-07-13T00:30:02;97311.72;;;22.31;100.00
46768;BME280;69007;48.978;18.066;2023-07-13T00:32:27;97314.59;;;22.35;100.00
46768;BME280;69007;48.978;18.066;2023-07-13T00:34:54;97299.34;;;22.29;100.00
46768;BME280;69007;48.978;18.066;2023-07-13T00:37:19;97312.63;;;22.23;100.00
46768;BME280;69007;48.978;18.066;2023-07-13T00:39:44;97289.66;;;22.10;100.00
46768;BME280;69007;48.978;18.066;2023-07-13T00:42:10;97281.53;;;21.77;100.00
46768;BME280;69007;48.978;18.066;2023-07-13T00:44:36;97281.19;;;21.66;100.00
46768;BME280;69007;48.978;18.066;2023-07-13T00:47:02;97284.28;;;21.64;100.00
46768;BME280;69007;48.978;18.066;2023-07-13T00:49:29;97259.50;;;21.56;100.00
46768;BME280;69007;48.978;18.066;2023-07-13T00:52:00;97261.69;;;21.62;100.00
46768;BME280;69007;48.978;18.066;2023-07-13T00:54:34;97262.97;;;21.65;100.00
46768;BME280;69007;48.978;18.066;2023-07-13T00:57:04;97288.78;;;21.69;100.00
46768;BME280;69007;48.978;18.066;2023-07-13T00:59:31;97282.09;;;21.45;100.00
46768;BME280;69007;48.978;18.066;2023-07-13T01:01:58;97273.91;;;21.49;100.00
46768;BME280;69007;48.978;18.066;2023-07-13T01:04:24;97268.25;;;21.58;100.00
46768;BME280;69007;48.978;18.066;2023-07-13T01:06:50;97279.59;;;21.65;100.00
46768;BME280;69007;48.978;18.066;2023-07-13T01:09:16;97271.28;;;21.65;100.00
46768;BME280;69007;48.978;18.066;2023-07-13T01:11:44;97255.91;;;21.67;100.00
46768;BME280;69007;48.978;18.066;2023-07-13T01:14:12;97244.72;;;21.64;100.00
46768;BME280;69007;48.978;18.066;2023-07-13T01:16:42;97255.56;;;21.69;100.00
46768;BME280;69007;48.978;18.066;2023-07-13T01:22:17;97256.81;;;21.47;100.00
46768;BME280;69007;48.978;18.066;2023-07-13T01:24:47;97257.84;;;21.42;100.00
46768;BME280;69007;48.978;18.066;2023-07-13T01:27:22;97262.59;;;21.42;100.00
46768;BME280;69007;48.978;18.066;2023-07-13T01:29:52;97251.75;;;21.37;100.00
46768;BME280;69007;48.978;18.066;2023-07-13T01:32:20;97272.50;;;21.43;100.00
46768;BME280;69007;48.978;18.066;2023-07-13T01:34:53;97257.38;;;21.28;100.00
46768;BME280;69007;48.978;18.066;2023-07-13T01:37:24;97266.63;;;21.32;100.00
46768;BME280;69007;48.978;18.066;2023-07-13T01:39:49;97267.53;;;21.24;100.00
46768;BME280;69007;48.978;18.066;2023-07-13T01:42:15;97269.13;;;21.12;100.00
46768;BME280;69007;48.978;18.066;2023-07-13T01:44:40;97270.63;;;21.10;100.00
46768;BME280;69007;48.978;18.066;2023-07-13T01:47:06;97273.50;;;21.13;100.00
46768;BME280;69007;48.978;18.066;2023-07-13T01:49:31;97260.59;;;21.17;100.00
46768;BME280;69007;48.978;18.066;2023-07-13T01:51:57;97245.16;;;21.16;100.00
46768;BME280;69007;48.978;18.066;2023-07-13T01:54:22;97246.31;;;21.15;100.00
46768;BME280;69007;48.978;18.066;2023-07-13T01:56:48;97243.66;;;21.19;100.00
46768;BME280;69007;48.978;18.066;2023-07-13T01:59:13;97236.84;;;21.16;100.00
46768;BME280;69007;48.978;18.066;2023-07-13T02:01:39;97246.88;;;21.21;100.00
46768;BME280;69007;48.978;18.066;2023-07-13T02:04:04;97240.31;;;21.13;100.00
46768;BME280;69007;48.978;18.066;2023-07-13T02:06:30;97241.47;;;21.12;100.00
46768;BME280;69007;48.978;18.066;2023-07-13T02:08:55;97241.94;;;21.14;100.00
46768;BME280;69007;48.978;18.066;2023-07-13T02:11:21;97226.97;;;21.15;100.00
46768;BME280;69007;48.978;18.066;2023-07-13T02:13:46;97216.91;;;21.11;100.00
46768;BME280;69007;48.978;18.066;2023-07-13T02:16:12;97227.31;;;21.14;100.00
46768;BME280;69007;48.978;18.066;2023-07-13T02:18:37;97219.66;;;20.98;100.00
46768;BME280;69007;48.978;18.066;2023-07-13T02:21:03;97233.63;;;21.02;100.00
46768;BME280;69007;48.978;18.066;2023-07-13T02:23:28;97231.09;;;20.97;100.00
46768;BME280;69007;48.978;18.066;2023-07-13T02:25:55;97239.63;;;21.04;100.00
46768;BME280;69007;48.978;18.066;2023-07-13T02:28:21;97254.13;;;21.13;100.00
46768;BME280;69007;48.978;18.066;2023-07-13T02:30:46;97248.81;;;21.08;100.00
46768;BME280;69007;48.978;18.066;2023-07-13T02:33:11;97224.84;;;20.88;100.00
46768;BME280;69007;48.978;18.066;2023-07-13T02:35:37;97232.13;;;21.05;100.00
46768;BME280;69007;48.978;18.066;2023-07-13T02:38:02;97244.22;;;21.00;100.00
46768;BME280;69007;48.978;18.066;2023-07-13T02:40:28;97239.16;;;21.02;100.00
46768;BME280;69007;48.978;18.066;2023-07-13T02:42:53;97242.63;;;20.99;100.00
46768;BME280;69007;48.978;18.066;2023-07-13T02:45:18;97271.31;;;21.07;100.00
46768;BME280;69007;48.978;18.066;2023-07-13T02:47:44;97263.00;;;20.94;100.00
46768;BME280;69007;48.978;18.066;2023-07-13T02:50:09;97254.47;;;20.87;100.00
46768;BME280;69007;48.978;18.066;2023-07-13T02:52:34;97268.34;;;20.78;100.00
46768;BME280;69007;48.978;18.066;2023-07-13T02:55:00;97266.97;;;20.72;100.00
46768;BME280;69007;48.978;18.066;2023-07-13T02:57:25;97260.03;;;20.66;100.00
46768;BME280;69007;48.978;18.066;2023-07-13T02:59:52;97279.75;;;20.77;100.00
46768;BME280;69007;48.978;18.066;2023-07-13T03:02:17;97255.78;;;20.69;100.00
46768;BME280;69007;48.978;18.066;2023-07-13T03:04:42;97247.22;;;20.61;100.00
46768;BME280;69007;48.978;18.066;2023-07-13T03:07:08;97248.84;;;20.62;100.00
46768;BME280;69007;48.978;18.066;2023-07-13T03:09:34;97274.56;;;20.75;100.00
46768;BME280;69007;48.978;18.066;2023-07-13T03:12:00;97290.97;;;20.80;100.00
46768;BME280;69007;48.978;18.066;2023-07-13T03:14:26;97287.72;;;20.78;100.00
46768;BME280;69007;48.978;18.066;2023-07-13T03:16:52;97287.94;;;20.73;100.00
46768;BME280;69007;48.978;18.066;2023-07-13T03:19:17;97275.75;;;20.74;100.00
46768;BME280;69007;48.978;18.066;2023-07-13T03:21:43;97287.72;;;20.78;100.00
46768;BME280;69007;48.978;18.066;2023-07-13T03:24:09;97285.44;;;20.80;100.00
46768;BME280;69007;48.978;18.066;2023-07-13T03:26:34;97283.94;;;20.83;100.00
46768;BME280;69007;48.978;18.066;2023-07-13T03:29:00;97279.91;;;20.80;100.00
46768;BME280;69007;48.978;18.066;2023-07-13T03:31:28;97294.22;;;20.95;100.00
46768;BME280;69007;48.978;18.066;2023-07-13T03:33:54;97303.81;;;21.10;100.00
46768;BME280;69007;48.978;18.066;2023-07-13T03:36:22;97304.53;;;21.31;100.00
46768;BME280;69007;48.978;18.066;2023-07-13T03:38:50;97313.81;;;21.48;100.00
46768;BME280;69007;48.978;18.066;2023-07-13T03:41:16;97323.06;;;21.77;100.00
46768;BME280;69007;48.978;18.066;2023-07-13T03:43:42;97336.22;;;21.92;100.00
46768;BME280;69007;48.978;18.066;2023-07-13T03:46:08;97329.97;;;21.95;100.00
46768;BME280;69007;48.978;18.066;2023-07-13T03:48:33;97335.16;;;21.97;100.00
46768;BME280;69007;48.978;18.066;2023-07-13T03:50:58;97342.00;;;21.99;100.00
46768;BME280;69007;48.978;18.066;2023-07-13T03:53:24;97349.03;;;21.97;100.00
46768;BME280;69007;48.978;18.066;2023-07-13T03:55:49;97340.94;;;21.92;100.00
46768;BME280;69007;48.978;18.066;2023-07-13T03:58:33;97336.91;;;21.89;100.00
46768;BME280;69007;48.978;18.066;2023-07-13T04:00:59;97334.81;;;21.98;100.00
46768;BME280;69007;48.978;18.066;2023-07-13T04:03:26;97322.81;;;21.94;100.00
46768;BME280;69007;48.978;18.066;2023-07-13T04:05:54;97330.88;;;22.12;100.00
46768;BME280;69007;48.978;18.066;2023-07-13T04:08:19;97325.00;;;22.13;100.00
46768;BME280;69007;48.978;18.066;2023-07-13T04:10:44;97333.31;;;22.13;100.00
46768;BME280;69007;48.978;18.066;2023-07-13T04:13:10;97339.06;;;22.20;100.00
46768;BME280;69007;48.978;18.066;2023-07-13T04:15:35;97323.25;;;22.21;100.00
46768;BME280;69007;48.978;18.066;2023-07-13T04:18:01;97316.00;;;22.16;100.00
46768;BME280;69007;48.978;18.066;2023-07-13T04:20:28;97324.88;;;22.09;100.00
46768;BME280;69007;48.978;18.066;2023-07-13T04:22:53;97323.59;;;22.19;100.00
46768;BME280;69007;48.978;18.066;2023-07-13T04:25:20;97305.91;;;22.24;100.00
46768;BME280;69007;48.978;18.066;2023-07-13T04:27:45;97307.09;;;22.11;100.00
46768;BME280;69007;48.978;18.066;2023-07-13T04:30:11;97302.97;;;22.04;100.00
46768;BME280;69007;48.978;18.066;2023-07-13T04:32:36;97305.75;;;22.04;100.00
46768;BME280;69007;48.978;18.066;2023-07-13T04:35:02;97310.91;;;22.18;100.00
46768;BME280;69007;48.978;18.066;2023-07-13T04:37:27;97308.94;;;22.31;100.00
46768;BME280;69007;48.978;18.066;2023-07-13T04:39:53;97311.31;;;22.45;100.00
46768;BME280;69007;48.978;18.066;2023-07-13T04:42:19;97306.00;;;22.52;100.00
46768;BME280;69007;48.978;18.066;2023-07-13T04:44:49;97326.16;;;22.65;100.00
46768;BME280;69007;48.978;18.066;2023-07-13T04:47:14;97333.22;;;22.62;100.00
46768;BME280;69007;48.978;18.066;2023-07-13T04:49:39;97336.88;;;22.67;100.00
46768;BME280;69007;48.978;18.066;2023-07-13T04:52:05;97351.22;;;22.69;100.00
46768;BME280;69007;48.978;18.066;2023-07-13T04:54:33;97359.31;;;22.61;100.00
46768;BME280;69007;48.978;18.066;2023-07-13T04:56:58;97368.06;;;22.23;100.00
46768;BME280;69007;48.978;18.066;2023-07-13T04:59:23;97356.66;;;22.00;100.00
46768;BME280;69007;48.978;18.066;2023-07-13T05:01:49;97358.47;;;21.96;100.00
46768;BME280;69007;48.978;18.066;2023-07-13T05:04:14;97361.72;;;21.98;100.00
46768;BME280;69007;48.978;18.066;2023-07-13T05:06:39;97347.16;;;21.76;100.00
46768;BME280;69007;48.978;18.066;2023-07-13T05:09:05;97366.00;;;21.83;100.00
46768;BME280;69007;48.978;18.066;2023-07-13T05:11:31;97378.34;;;21.73;100.00
46768;BME280;69007;48.978;18.066;2023-07-13T05:13:56;97373.72;;;21.65;100.00
46768;BME280;69007;48.978;18.066;2023-07-13T05:16:21;97360.53;;;21.49;100.00
46768;BME280;69007;48.978;18.066;2023-07-13T05:18:47;97355.00;;;21.49;100.00
46768;BME280;69007;48.978;18.066;2023-07-13T05:21:12;97367.69;;;21.50;100.00
46768;BME280;69007;48.978;18.066;2023-07-13T05:23:39;97357.13;;;21.31;100.00
46768;BME280;69007;48.978;18.066;2023-07-13T05:26:05;97373.72;;;21.31;100.00
46768;BME280;69007;48.978;18.066;2023-07-13T05:28:31;97377.78;;;21.34;100.00
46768;BME280;69007;48.978;18.066;2023-07-13T05:30:57;97353.28;;;21.11;100.00
46768;BME280;69007;48.978;18.066;2023-07-13T05:33:24;97353.50;;;21.06;100.00
46768;BME280;69007;48.978;18.066;2023-07-13T05:35:50;97351.78;;;21.14;100.00
46768;BME280;69007;48.978;18.066;2023-07-13T05:38:15;97371.66;;;21.28;100.00
46768;BME280;69007;48.978;18.066;2023-07-13T05:40:44;97360.44;;;21.25;100.00
46768;BME280;69007;48.978;18.066;2023-07-13T05:43:10;97352.75;;;21.30;100.00
46768;BME280;69007;48.978;18.066;2023-07-13T05:45:35;97362.69;;;21.44;100.00
46768;BME280;69007;48.978;18.066;2023-07-13T05:48:01;97362.69;;;21.44;100.00
46768;BME280;69007;48.978;18.066;2023-07-13T05:50:27;97341.91;;;21.38;100.00
46768;BME280;69007;48.978;18.066;2023-07-13T05:52:52;97361.69;;;21.48;100.00
46768;BME280;69007;48.978;18.066;2023-07-13T05:55:18;97357.38;;;21.39;100.00
46768;BME280;69007;48.978;18.066;2023-07-13T05:57:44;97356.69;;;21.42;100.00
46768;BME280;69007;48.978;18.066;2023-07-13T06:00:10;97352.06;;;21.33;100.00
46768;BME280;69007;48.978;18.066;2023-07-13T06:02:35;97362.31;;;21.33;100.00
46768;BME280;69007;48.978;18.066;2023-07-13T06:05:01;97343.72;;;21.21;100.00
46768;BME280;69007;48.978;18.066;2023-07-13T06:07:26;97363.72;;;21.27;100.00
46768;BME280;69007;48.978;18.066;2023-07-13T06:09:51;97357.66;;;21.12;100.00
46768;BME280;69007;48.978;18.066;2023-07-13T06:12:17;97383.28;;;21.22;100.00
46768;BME280;69007;48.978;18.066;2023-07-13T06:14:42;97378.22;;;21.24;100.00
46768;BME280;69007;48.978;18.066;2023-07-13T06:17:08;97379.59;;;21.30;100.00
46768;BME280;69007;48.978;18.066;2023-07-13T06:19:33;97380.31;;;21.39;100.00
46768;BME280;69007;48.978;18.066;2023-07-13T06:21:59;97372.72;;;21.36;100.00
46768;BME280;69007;48.978;18.066;2023-07-13T06:24:25;97377.00;;;21.46;100.00
46768;BME280;69007;48.978;18.066;2023-07-13T06:26:50;97375.53;;;21.48;100.00
46768;BME280;69007;48.978;18.066;2023-07-13T06:29:16;97368.38;;;21.47;100.00
46768;BME280;69007;48.978;18.066;2023-07-13T06:31:42;97363.78;;;21.51;100.00
46768;BME280;69007;48.978;18.066;2023-07-13T06:34:07;97373.72;;;21.65;100.00
46768;BME280;69007;48.978;18.066;2023-07-13T06:36:33;97376.72;;;21.72;100.00
46768;BME280;69007;48.978;18.066;2023-07-13T06:38:58;97374.06;;;21.76;100.00
46768;BME280;69007;48.978;18.066;2023-07-13T06:41:24;97374.84;;;21.76;100.00
46768;BME280;69007;48.978;18.066;2023-07-13T06:43:51;97353.28;;;21.69;100.00
46768;BME280;69007;48.978;18.066;2023-07-13T06:46:17;97371.53;;;21.83;100.00
46768;BME280;69007;48.978;18.066;2023-07-13T06:48:43;97346.72;;;21.74;100.00
46768;BME280;69007;48.978;18.066;2023-07-13T06:51:08;97350.88;;;21.68;100.00
46768;BME280;69007;48.978;18.066;2023-07-13T06:53:34;97346.72;;;21.74;100.00
46768;BME280;69007;48.978;18.066;2023-07-13T06:55:59;97352.94;;;21.83;100.00
46768;BME280;69007;48.978;18.066;2023-07-13T06:58:24;97350.16;;;21.96;100.00
46768;BME280;69007;48.978;18.066;2023-07-13T07:00:51;97359.97;;;22.18;100.00
46768;BME280;69007;48.978;18.066;2023-07-13T07:03:17;97358.03;;;22.31;100.00
46768;BME280;69007;48.978;18.066;2023-07-13T07:05:43;97346.94;;;22.31;100.00
46768;BME280;69007;48.978;18.066;2023-07-13T07:08:08;97354.06;;;22.44;100.00
46768;BME280;69007;48.978;18.066;2023-07-13T07:10:34;97338.63;;;22.31;100.00
46768;BME280;69007;48.978;18.066;2023-07-13T07:13:00;97350.25;;;22.24;100.00
46768;BME280;69007;48.978;18.066;2023-07-13T07:15:26;97349.78;;;22.22;100.00
46768;BME280;69007;48.978;18.066;2023-07-13T07:17:52;97347.28;;;22.29;100.00
46768;BME280;69007;48.978;18.066;2023-07-13T07:20:17;97341.47;;;22.22;100.00
46768;BME280;69007;48.978;18.066;2023-07-13T07:22:42;97343.00;;;22.07;100.00
46768;BME280;69007;48.978;18.066;2023-07-13T07:25:08;97352.84;;;22.04;100.00
46768;BME280;69007;48.978;18.066;2023-07-13T07:27:33;97346.81;;;22.02;100.00
46768;BME280;69007;48.978;18.066;2023-07-13T07:29:59;97361.81;;;22.14;100.00
46768;BME280;69007;48.978;18.066;2023-07-13T07:32:25;97359.63;;;22.19;100.00
46768;BME280;69007;48.978;18.066;2023-07-13T07:34:50;97346.22;;;22.21;100.00
46768;BME280;69007;48.978;18.066;2023-07-13T07:37:15;97364.03;;;22.33;100.00
46768;BME280;69007;48.978;18.066;2023-07-13T07:39:43;97362.16;;;22.37;100.00
46768;BME280;69007;48.978;18.066;2023-07-13T07:42:09;97363.66;;;22.22;100.00
46768;BME280;69007;48.978;18.066;2023-07-13T07:44:34;97360.31;;;22.16;100.00
46768;BME280;69007;48.978;18.066;2023-07-13T07:47:00;97377.19;;;22.11;100.00
46768;BME280;69007;48.978;18.066;2023-07-13T07:49:26;97375.09;;;22.08;100.00
46768;BME280;69007;48.978;18.066;2023-07-13T07:51:51;97384.13;;;22.05;100.00
46768;BME280;69007;48.978;18.066;2023-07-13T07:54:17;97388.38;;;22.02;100.00
46768;BME280;69007;48.978;18.066;2023-07-13T07:56:42;97386.53;;;21.94;100.00
46768;BME280;69007;48.978;18.066;2023-07-13T07:59:08;97388.50;;;21.94;100.00
46768;BME280;69007;48.978;18.066;2023-07-13T08:01:33;97385.97;;;21.88;100.00
46768;BME280;69007;48.978;18.066;2023-07-13T08:03:59;97383.53;;;21.87;100.00
46768;BME280;69007;48.978;18.066;2023-07-13T08:06:24;97407.91;;;21.81;100.00
46768;BME280;69007;48.978;18.066;2023-07-13T08:08:50;97388.38;;;21.65;100.00
46768;BME280;69007;48.978;18.066;2023-07-13T08:11:16;97403.69;;;21.63;100.00
46768;BME280;69007;48.978;18.066;2023-07-13T08:13:42;97400.22;;;21.53;100.00
46768;BME280;69007;48.978;18.066;2023-07-13T08:16:08;97399.22;;;21.58;100.00
46768;BME280;69007;48.978;18.066;2023-07-13T08:18:33;97398.25;;;21.54;100.00
46768;BME280;69007;48.978;18.066;2023-07-13T08:21:06;97406.47;;;21.63;100.00
46768;BME280;69007;48.978;18.066;2023-07-13T08:23:31;97404.19;;;21.77;100.00
46768;BME280;69007;48.978;18.066;2023-07-13T08:25:57;97405.81;;;21.78;100.00
46768;BME280;69007;48.978;18.066;2023-07-13T08:28:23;97397.72;;;21.73;100.00
46768;BME280;69007;48.978;18.066;2023-07-13T08:30:49;97398.19;;;21.87;100.00
46768;BME280;69007;48.978;18.066;2023-07-13T08:33:16;97426.25;;;21.98;100.00
46768;BME280;69007;48.978;18.066;2023-07-13T08:35:42;97424.88;;;22.04;100.00
46768;BME280;69007;48.978;18.066;2023-07-13T08:38:07;97420.47;;;22.03;100.00
46768;BME280;69007;48.978;18.066;2023-07-13T08:40:33;97395.31;;;21.96;100.00
46768;BME280;69007;48.978;18.066;2023-07-13T08:43:00;97423.59;;;22.14;100.00
46768;BME280;69007;48.978;18.066;2023-07-13T08:45:38;97420.97;;;22.42;100.00
46768;BME280;69007;48.978;18.066;2023-07-13T08:48:15;97424.03;;;22.66;100.00
46768;BME280;69007;48.978;18.066;2023-07-13T08:51:04;97422.38;;;22.77;100.00
46768;BME280;69007;48.978;18.066;2023-07-13T08:53:43;97410.84;;;23.15;100.00
46768;BME280;69007;48.978;18.066;2023-07-13T08:56:18;97422.09;;;23.51;100.00
46768;BME280;69007;48.978;18.066;2023-07-13T08:58:46;97419.03;;;23.84;100.00
46768;BME280;69007;48.978;18.066;2023-07-13T09:01:28;97425.13;;;24.06;100.00
46768;BME280;69007;48.978;18.066;2023-07-13T09:04:05;97417.81;;;24.33;100.00
46768;BME280;69007;48.978;18.066;2023-07-13T09:09:46;97417.22;;;24.75;100.00
46768;BME280;69007;48.978;18.066;2023-07-13T09:15:02;97410.03;;;24.74;100.00
46768;BME280;69007;48.978;18.066;2023-07-13T09:17:36;97419.56;;;24.93;100.00
46768;BME280;69007;48.978;18.066;2023-07-13T09:20:42;97417.38;;;25.22;100.00
46768;BME280;69007;48.978;18.066;2023-07-13T09:23:03;97395.53;;;25.43;100.00
46768;BME280;69007;48.978;18.066;2023-07-13T09:25:34;97393.25;;;25.72;100.00
46768;BME280;69007;48.978;18.066;2023-07-13T09:28:11;97382.91;;;25.72;100.00
46768;BME280;69007;48.978;18.066;2023-07-13T09:30:43;97392.56;;;26.02;100.00
46768;BME280;69007;48.978;18.066;2023-07-13T09:33:10;97384.72;;;25.84;100.00
46768;BME280;69007;48.978;18.066;2023-07-13T09:35:35;97386.69;;;25.84;100.00
46768;BME280;69007;48.978;18.066;2023-07-13T09:43:20;97377.38;;;25.96;100.00
46768;BME280;69007;48.978;18.066;2023-07-13T09:45:46;97386.97;;;25.79;100.00
46768;BME280;69007;48.978;18.066;2023-07-13T09:48:16;97375.56;;;25.84;100.00
46768;BME280;69007;48.978;18.066;2023-07-13T09:50:42;97387.94;;;26.09;100.00
46768;BME280;69007;48.978;18.066;2023-07-13T09:53:16;97385.09;;;26.06;100.00
46768;BME280;69007;48.978;18.066;2023-07-13T09:55:44;97375.41;;;26.00;100.00
46768;BME280;69007;48.978;18.066;2023-07-13T09:58:16;97384.28;;;26.05;100.00
46768;BME280;69007;48.978;18.066;2023-07-13T10:00:54;97388.88;;;25.71;100.00
46768;BME280;69007;48.978;18.066;2023-07-13T10:03:21;97388.25;;;25.81;100.00
46768;BME280;69007;48.978;18.066;2023-07-13T10:05:49;97382.34;;;25.86;100.00
46768;BME280;69007;48.978;18.066;2023-07-13T10:08:26;97392.28;;;26.07;100.00
46768;BME280;69007;48.978;18.066;2023-07-13T10:11:26;97386.75;;;26.10;100.00
46768;BME280;69007;48.978;18.066;2023-07-13T10:13:57;97376.72;;;26.33;100.00
46768;BME280;69007;48.978;18.066;2023-07-13T10:16:29;97390.38;;;26.41;100.00
46768;BME280;69007;48.978;18.066;2023-07-13T10:19:24;97385.63;;;26.42;100.00
46768;BME280;69007;48.978;18.066;2023-07-13T10:22:16;97397.75;;;26.80;100.00
46768;BME280;69007;48.978;18.066;2023-07-13T10:24:46;97403.53;;;26.94;100.00
46768;BME280;69007;48.978;18.066;2023-07-13T10:27:17;97402.66;;;26.90;100.00
46768;BME280;69007;48.978;18.066;2023-07-13T10:29:49;97411.63;;;27.07;100.00
46768;BME280;69007;48.978;18.066;2023-07-13T10:32:19;97412.91;;;27.13;100.00
46768;BME280;69007;48.978;18.066;2023-07-13T10:34:46;97402.41;;;27.02;100.00
46768;BME280;69007;48.978;18.066;2023-07-13T10:37:18;97414.06;;;27.08;100.00
46768;BME280;69007;48.978;18.066;2023-07-13T10:39:46;97402.47;;;26.76;100.00
46768;BME280;69007;48.978;18.066;2023-07-13T10:42:28;97394.34;;;26.63;100.00
46768;BME280;69007;48.978;18.066;2023-07-13T10:44:54;97421.16;;;26.45;100.00
46768;BME280;69007;48.978;18.066;2023-07-13T10:47:20;97437.94;;;26.22;100.00
46768;BME280;69007;48.978;18.066;2023-07-13T10:49:47;97446.13;;;25.91;100.00
46768;BME280;69007;48.978;18.066;2023-07-13T10:52:47;97434.13;;;25.64;100.00
46768;BME280;69007;48.978;18.066;2023-07-13T10:55:32;97427.78;;;25.25;100.00
46768;BME280;69007;48.978;18.066;2023-07-13T10:58:13;97418.25;;;25.45;100.00
46768;BME280;69007;48.978;18.066;2023-07-13T11:00:51;97426.25;;;25.70;100.00
46768;BME280;69007;48.978;18.066;2023-07-13T11:03:20;97433.69;;;25.85;100.00
46768;BME280;69007;48.978;18.066;2023-07-13T11:05:52;97424.28;;;25.93;100.00
46768;BME280;69007;48.978;18.066;2023-07-13T11:08:34;97428.53;;;26.07;100.00
46768;BME280;69007;48.978;18.066;2023-07-13T11:18:49;97428.94;;;26.32;100.00
46768;BME280;69007;48.978;18.066;2023-07-13T11:21:18;97426.28;;;26.16;100.00
46768;BME280;69007;48.978;18.066;2023-07-13T11:23:51;97422.69;;;25.92;100.00
46768;BME280;69007;48.978;18.066;2023-07-13T11:26:39;97428.63;;;25.68;100.00
46768;BME280;69007;48.978;18.066;2023-07-13T11:31:58;97411.91;;;25.68;100.00
46768;BME280;69007;48.978;18.066;2023-07-13T11:34:30;97424.63;;;25.69;100.00
46768;BME280;69007;48.978;18.066;2023-07-13T11:36:58;97428.50;;;25.84;100.00
46768;BME280;69007;48.978;18.066;2023-07-13T11:39:31;97436.03;;;25.83;100.00
46768;BME280;69007;48.978;18.066;2023-07-13T11:42:00;97425.53;;;25.73;100.00
46768;BME280;69007;48.978;18.066;2023-07-13T11:44:29;97417.97;;;25.97;100.00
46768;BME280;69007;48.978;18.066;2023-07-13T11:46:58;97418.13;;;26.30;100.00
46768;BME280;69007;48.978;18.066;2023-07-13T11:49:31;97406.38;;;26.44;100.00
46768;BME280;69007;48.978;18.066;2023-07-13T11:51:57;97417.47;;;26.64;100.00
46768;BME280;69007;48.978;18.066;2023-07-13T11:56:52;97415.34;;;26.57;100.00
46768;BME280;69007;48.978;18.066;2023-07-13T11:59:18;97422.97;;;26.60;100.00
46768;BME280;69007;48.978;18.066;2023-07-13T12:01:46;97415.13;;;26.43;100.00
46768;BME280;69007;48.978;18.066;2023-07-13T12:04:28;97423.66;;;26.27;100.00
46768;BME280;69007;48.978;18.066;2023-07-13T12:07:15;97415.53;;;26.18;100.00
46768;BME280;69007;48.978;18.066;2023-07-13T12:09:42;97417.25;;;26.00;100.00
46768;BME280;69007;48.978;18.066;2023-07-13T12:12:12;97425.09;;;25.71;100.00
46768;BME280;69007;48.978;18.066;2023-07-13T12:14:38;97419.94;;;25.30;100.00
46768;BME280;69007;48.978;18.066;2023-07-13T12:17:15;97444.91;;;25.07;100.00
46768;BME280;69007;48.978;18.066;2023-07-13T12:19:41;97452.81;;;24.86;100.00
46768;BME280;69007;48.978;18.066;2023-07-13T12:22:09;97473.78;;;24.63;100.00
46768;BME280;69007;48.978;18.066;2023-07-13T12:24:37;97464.81;;;24.38;100.00
46768;BME280;69007;48.978;18.066;2023-07-13T12:27:04;97461.88;;;23.83;100.00
46768;BME280;69007;48.978;18.066;2023-07-13T12:29:31;97464.47;;;23.48;100.00
46768;BME280;69007;48.978;18.066;2023-07-13T12:31:58;97466.53;;;23.23;100.00
46768;BME280;69007;48.978;18.066;2023-07-13T12:34:26;97474.66;;;23.03;100.00
46768;BME280;69007;48.978;18.066;2023-07-13T12:36:59;97473.56;;;22.92;100.00
46768;BME280;69007;48.978;18.066;2023-07-13T12:39:31;97451.53;;;22.71;100.00
46768;BME280;69007;48.978;18.066;2023-07-13T12:42:26;97461.91;;;22.74;100.00
46768;BME280;69007;48.978;18.066;2023-07-13T12:45:02;97453.59;;;22.74;100.00
46768;BME280;69007;48.978;18.066;2023-07-13T12:47:30;97479.22;;;22.83;100.00
46768;BME280;69007;48.978;18.066;2023-07-13T12:49:58;97482.25;;;22.78;100.00
46768;BME280;69007;48.978;18.066;2023-07-13T12:52:32;97460.09;;;22.53;100.00
46768;BME280;69007;48.978;18.066;2023-07-13T12:55:07;97467.03;;;22.35;100.00
46768;BME280;69007;48.978;18.066;2023-07-13T12:57:54;97450.97;;;22.28;100.00
46768;BME280;69007;48.978;18.066;2023-07-13T13:00:29;97470.47;;;22.19;100.00
46768;BME280;69007;48.978;18.066;2023-07-13T13:03:02;97474.41;;;22.18;100.00
46768;BME280;69007;48.978;18.066;2023-07-13T13:05:29;97478.22;;;22.26;100.00
46768;BME280;69007;48.978;18.066;2023-07-13T13:07:55;97449.47;;;22.18;100.00
46768;BME280;69007;48.978;18.066;2023-07-13T13:10:21;97465.28;;;22.18;100.00
46768;BME280;69007;48.978;18.066;2023-07-13T13:12:47;97462.03;;;22.03;100.00